createdAt,value
2018-10-09T00:00:57.768Z,11.20
2018-10-09T00:03:32.925Z,11.20
2018-10-09T00:06:07.981Z,11.20
2018-10-09T00:08:43.222Z,11.20
2018-10-09T00:11:18.315Z,11.20
2018-10-09T00:13:53.659Z,11.10
2018-10-09T00:16:28.262Z,10.90
2018-10-09T00:19:03.778Z,10.90
2018-10-09T00:21:39.155Z,10.40
2018-10-09T00:24:13.863Z,9.90
2018-10-09T00:26:48.760Z,9.90
2018-10-09T00:29:23.774Z,9.90
2018-10-09T00:31:58.625Z,9.80
2018-10-09T00:34:33.417Z,9.70
2018-10-09T00:37:08.514Z,9.60
2018-10-09T00:39:43.402Z,9.30
2018-10-09T00:42:18.281Z,9.30
2018-10-09T00:44:53.259Z,9.40
2018-10-09T00:47:28.243Z,9.50
2018-10-09T00:50:03.184Z,9.50
2018-10-09T00:52:37.908Z,9.40
2018-10-09T00:55:12.721Z,9.20
2018-10-09T00:57:47.487Z,9.20
2018-10-09T01:00:22.692Z,9.20
2018-10-09T01:02:57.663Z,9.20
2018-10-09T01:05:32.562Z,9.30
2018-10-09T01:08:07.477Z,9.30
2018-10-09T01:10:42.370Z,9.20
2018-10-09T01:13:17.291Z,9.20
2018-10-09T01:15:52.024Z,9.00
2018-10-09T01:18:27.232Z,9.10
2018-10-09T01:21:02.690Z,9.00
2018-10-09T01:23:37.296Z,9.00
2018-10-09T01:26:12.470Z,9.10
2018-10-09T01:28:47.446Z,9.10
2018-10-09T01:31:22.466Z,8.90
2018-10-09T01:33:57.299Z,9.00
2018-10-09T01:36:32.241Z,8.90
2018-10-09T01:39:08.980Z,8.90
2018-10-09T01:41:43.655Z,9.00
2018-10-09T01:44:18.409Z,9.20
2018-10-09T01:46:53.694Z,9.30
2018-10-09T01:49:28.472Z,9.40
2018-10-09T01:52:03.589Z,9.40
2018-10-09T01:54:38.276Z,9.40
2018-10-09T01:57:13.150Z,9.50
2018-10-09T01:59:48.266Z,9.40
2018-10-09T02:02:23.339Z,9.50
2018-10-09T02:04:58.201Z,9.70
2018-10-09T02:07:32.929Z,9.70
2018-10-09T02:10:07.945Z,9.80
2018-10-09T02:12:42.698Z,9.80
2018-10-09T02:15:17.513Z,9.90
2018-10-09T02:17:52.440Z,10.00
2018-10-09T02:20:27.327Z,10.00
2018-10-09T02:23:02.272Z,10.00
2018-10-09T02:25:37.172Z,10.10
2018-10-09T02:28:12.721Z,10.10
2018-10-09T02:30:47.513Z,10.20
2018-10-09T02:33:22.867Z,10.20
2018-10-09T02:35:57.811Z,10.20
2018-10-09T02:38:32.771Z,10.30
2018-10-09T02:41:08.617Z,10.30
2018-10-09T02:43:43.875Z,10.40
2018-10-09T02:46:18.666Z,10.40
2018-10-09T02:48:53.883Z,10.40
2018-10-09T02:51:29.221Z,10.50
2018-10-09T02:54:04.900Z,10.40
2018-10-09T02:56:39.694Z,10.40
2018-10-09T02:59:14.429Z,10.40
2018-10-09T03:01:49.213Z,10.50
2018-10-09T03:04:24.182Z,10.60
2018-10-09T03:06:58.940Z,10.60
2018-10-09T03:09:34.360Z,10.60
2018-10-09T03:12:09.522Z,10.70
2018-10-09T03:14:44.289Z,10.70
2018-10-09T03:17:19.251Z,10.70
2018-10-09T03:19:54.625Z,10.60
2018-10-09T03:22:29.470Z,10.70
2018-10-09T03:25:04.533Z,10.70
2018-10-09T03:27:39.446Z,10.80
2018-10-09T03:30:14.984Z,10.80
2018-10-09T03:32:51.031Z,10.80
2018-10-09T03:35:26.425Z,10.80
2018-10-09T03:38:01.281Z,10.70
2018-10-09T03:40:36.046Z,10.80
2018-10-09T03:43:10.919Z,10.90
2018-10-09T03:45:45.626Z,10.90
2018-10-09T03:48:20.374Z,10.90
2018-10-09T03:50:55.126Z,11.00
2018-10-09T03:53:30.243Z,11.10
2018-10-09T03:56:04.987Z,11.10
2018-10-09T03:58:39.980Z,11.10
2018-10-09T04:01:14.711Z,11.10
2018-10-09T04:03:49.575Z,11.00
2018-10-09T04:06:24.590Z,11.10
2018-10-09T04:08:59.748Z,11.00
2018-10-09T04:11:34.857Z,11.10
2018-10-09T04:14:09.586Z,11.10
2018-10-09T04:16:44.529Z,11.10
2018-10-09T04:19:19.324Z,11.10
2018-10-09T04:21:54.290Z,11.10
2018-10-09T04:24:29.075Z,11.10
2018-10-09T04:27:03.941Z,11.10
2018-10-09T04:29:38.933Z,11.20
2018-10-09T04:32:13.765Z,11.10
2018-10-09T04:34:49.355Z,11.00
2018-10-09T04:37:24.387Z,11.10
2018-10-09T04:39:58.973Z,11.20
2018-10-09T04:42:33.826Z,11.00
2018-10-09T04:45:08.694Z,11.10
2018-10-09T04:47:43.458Z,11.00
2018-10-09T04:50:18.964Z,11.00
2018-10-09T04:52:53.838Z,11.10
2018-10-09T04:55:29.541Z,11.20
2018-10-09T04:58:05.525Z,11.20
2018-10-09T05:00:40.400Z,11.10
2018-10-09T05:03:15.402Z,11.20
2018-10-09T05:05:50.082Z,11.20
2018-10-09T05:08:24.844Z,11.30
2018-10-09T05:11:00.292Z,11.30
2018-10-09T05:13:35.086Z,11.20
2018-10-09T05:16:09.734Z,11.30
2018-10-09T05:18:44.530Z,11.20
2018-10-09T05:21:19.254Z,11.20
2018-10-09T05:23:53.988Z,11.30
2018-10-09T05:26:28.924Z,11.30
2018-10-09T05:29:03.804Z,11.30
2018-10-09T05:31:39.388Z,11.30
2018-10-09T05:34:14.339Z,11.30
2018-10-09T05:36:49.145Z,11.30
2018-10-09T05:39:24.073Z,11.30
2018-10-09T05:41:58.901Z,11.40
2018-10-09T05:44:34.299Z,11.40
2018-10-09T05:47:09.758Z,11.40
2018-10-09T05:49:45.346Z,11.40
2018-10-09T05:52:20.201Z,11.40
2018-10-09T05:54:54.954Z,11.40
2018-10-09T05:57:30.382Z,11.40
2018-10-09T06:00:05.468Z,11.50
2018-10-09T06:02:40.546Z,11.60
2018-10-09T06:05:15.258Z,11.60
2018-10-09T06:07:50.386Z,11.70
2018-10-09T06:10:25.321Z,11.70
2018-10-09T06:13:00.158Z,11.70
2018-10-09T06:15:35.067Z,11.60
2018-10-09T06:18:10.289Z,11.70
2018-10-09T06:20:45.176Z,11.70
2018-10-09T06:23:19.984Z,11.80
2018-10-09T06:25:54.918Z,11.80
2018-10-09T06:28:29.758Z,11.80
2018-10-09T06:31:04.626Z,11.80
2018-10-09T06:33:39.640Z,11.80
2018-10-09T06:36:15.283Z,11.90
2018-10-09T06:38:50.019Z,11.90
2018-10-09T06:41:24.864Z,12.00
2018-10-09T06:44:00.274Z,12.00
2018-10-09T06:46:35.033Z,12.00
2018-10-09T06:49:09.884Z,12.00
2018-10-09T06:51:44.686Z,12.10
2018-10-09T06:54:19.385Z,12.10
2018-10-09T06:56:54.340Z,12.10
2018-10-09T06:59:29.189Z,12.20
2018-10-09T07:02:04.183Z,12.30
2018-10-09T07:04:38.978Z,12.30
2018-10-09T07:07:13.924Z,12.30
2018-10-09T07:09:48.814Z,12.40
2018-10-09T07:12:23.482Z,12.40
2018-10-09T07:14:58.694Z,12.50
2018-10-09T07:17:34.067Z,12.60
2018-10-09T07:20:09.611Z,12.60
2018-10-09T07:22:44.777Z,12.70
2018-10-09T07:25:19.533Z,12.90
2018-10-09T07:27:54.200Z,13.00
2018-10-09T07:30:29.177Z,13.10
2018-10-09T07:33:04.702Z,13.20
2018-10-09T07:35:39.552Z,13.50
2018-10-09T07:38:14.343Z,13.40
2018-10-09T07:40:49.924Z,13.50
2018-10-09T07:43:24.849Z,13.70
2018-10-09T07:45:59.608Z,13.90
2018-10-09T07:48:34.418Z,13.90
2018-10-09T07:51:09.989Z,14.10
2018-10-09T07:53:44.803Z,14.20
2018-10-09T07:56:19.981Z,14.10
2018-10-09T07:58:55.875Z,14.30
2018-10-09T08:01:30.686Z,14.50
2018-10-09T08:04:05.546Z,14.50
2018-10-09T08:06:40.522Z,14.60
2018-10-09T08:09:15.318Z,14.90
2018-10-09T08:11:50.173Z,15.00
2018-10-09T08:14:25.713Z,15.00
2018-10-09T08:17:00.612Z,15.10
2018-10-09T08:19:35.595Z,15.10
2018-10-09T08:22:10.417Z,15.10
2018-10-09T08:24:45.149Z,15.40
2018-10-09T08:27:20.335Z,15.60
2018-10-09T08:29:55.160Z,15.50
2018-10-09T08:32:31.225Z,15.30
2018-10-09T08:35:06.386Z,15.60
2018-10-09T08:37:41.425Z,15.70
2018-10-09T08:40:16.383Z,15.80
2018-10-09T08:42:51.299Z,15.90
2018-10-09T08:45:26.121Z,15.90
2018-10-09T08:48:00.778Z,15.80
2018-10-09T08:50:35.529Z,15.90
2018-10-09T08:53:10.158Z,15.80
2018-10-09T08:55:44.901Z,15.90
2018-10-09T08:58:19.651Z,15.80
2018-10-09T09:00:55.265Z,15.90
2018-10-09T09:03:30.305Z,15.80
2018-10-09T09:06:05.279Z,15.70
2018-10-09T09:08:40.954Z,15.50
2018-10-09T09:11:15.652Z,15.40
2018-10-09T09:13:50.479Z,15.40
2018-10-09T09:16:25.625Z,15.40
2018-10-09T09:19:00.322Z,15.40
2018-10-09T09:21:35.602Z,15.50
2018-10-09T09:24:10.266Z,15.40
2018-10-09T09:26:45.898Z,15.50
2018-10-09T09:29:20.661Z,15.60
2018-10-09T09:31:55.384Z,15.50
2018-10-09T09:34:30.233Z,15.60
2018-10-09T09:37:05.036Z,15.80
2018-10-09T09:39:39.797Z,15.80
2018-10-09T09:42:14.595Z,15.90
2018-10-09T09:44:50.176Z,16.00
2018-10-09T09:47:26.110Z,16.10
2018-10-09T09:50:00.777Z,16.20
2018-10-09T09:52:35.645Z,16.00
2018-10-09T09:55:11.127Z,16.40
2018-10-09T09:57:47.189Z,16.80
2018-10-09T10:00:28.030Z,16.90
2018-10-09T10:03:03.717Z,17.20
2018-10-09T10:05:39.378Z,17.50
2018-10-09T10:08:14.670Z,17.40
2018-10-09T10:10:50.046Z,17.30
2018-10-09T10:13:25.538Z,17.70
2018-10-09T10:16:01.749Z,18.00
2018-10-09T10:18:37.073Z,18.30
2018-10-09T10:21:13.184Z,18.40
2018-10-09T10:23:48.814Z,18.70
2018-10-09T10:26:24.219Z,18.60
2018-10-09T10:28:59.402Z,18.70
2018-10-09T10:31:35.008Z,18.90
2018-10-09T10:34:11.770Z,18.70
2018-10-09T10:36:47.704Z,18.60
2018-10-09T10:39:23.177Z,19.50
2018-10-09T10:41:58.656Z,20.80
2018-10-09T10:44:34.444Z,20.60
2018-10-09T10:47:09.918Z,20.80
2018-10-09T10:49:45.229Z,20.70
2018-10-09T10:52:20.857Z,21.80
2018-10-09T10:54:56.064Z,22.10
2018-10-09T10:57:31.246Z,26.30
2018-10-09T11:00:06.703Z,25.40
2018-10-09T11:02:42.014Z,26.70
2018-10-09T11:05:17.083Z,28.50
2018-10-09T11:07:52.938Z,29.70
2018-10-09T11:10:28.394Z,27.50
2018-10-09T11:13:03.789Z,26.50
2018-10-09T11:15:39.658Z,26.80
2018-10-09T11:18:14.717Z,26.50
2018-10-09T11:20:50.121Z,26.10
2018-10-09T11:23:25.741Z,27.30
2018-10-09T11:26:02.164Z,26.70
2018-10-09T11:28:38.275Z,28.00
2018-10-09T11:31:13.531Z,27.20
2018-10-09T11:33:48.742Z,28.30
2018-10-09T11:36:23.771Z,28.90
2018-10-09T11:38:59.578Z,31.90
2018-10-09T11:41:34.710Z,28.50
2018-10-09T11:44:09.900Z,27.30
2018-10-09T11:46:44.957Z,27.50
2018-10-09T11:49:20.762Z,28.60
2018-10-09T11:51:56.390Z,27.40
2018-10-09T11:54:31.754Z,28.50
2018-10-09T11:57:06.797Z,29.60
2018-10-09T11:59:42.145Z,28.50
2018-10-09T12:02:18.022Z,30.00
2018-10-09T12:04:53.262Z,30.00
2018-10-09T12:07:28.433Z,29.30
2018-10-09T12:10:03.904Z,28.50
2018-10-09T12:12:39.160Z,28.80
2018-10-09T12:15:14.179Z,30.10
2018-10-09T12:17:49.311Z,30.20
2018-10-09T12:20:24.551Z,31.00
2018-10-09T12:23:00.135Z,31.70
2018-10-09T12:25:35.021Z,31.50
2018-10-09T12:28:10.297Z,32.00
2018-10-09T12:30:45.293Z,31.60
2018-10-09T12:33:20.401Z,31.60
2018-10-09T12:35:56.269Z,35.40
2018-10-09T12:38:31.219Z,35.20
2018-10-09T12:41:07.070Z,33.00
2018-10-09T12:43:42.173Z,30.10
2018-10-09T12:46:17.783Z,28.30
2018-10-09T12:48:52.835Z,27.70
2018-10-09T12:51:27.935Z,28.40
2018-10-09T12:54:04.012Z,29.00
2018-10-09T12:56:39.173Z,30.10
2018-10-09T12:59:14.069Z,30.40
2018-10-09T13:01:49.285Z,30.70
2018-10-09T13:04:24.523Z,31.10
2018-10-09T13:06:59.680Z,32.10
2018-10-09T13:09:34.721Z,31.70
2018-10-09T13:12:11.081Z,31.40
2018-10-09T13:14:46.342Z,30.50
2018-10-09T13:17:21.412Z,30.40
2018-10-09T13:19:56.540Z,30.90
2018-10-09T13:22:31.904Z,29.80
2018-10-09T13:25:07.109Z,30.40
2018-10-09T13:27:42.359Z,30.60
2018-10-09T13:30:17.653Z,31.00
2018-10-09T13:32:52.763Z,32.20
2018-10-09T13:35:27.979Z,31.40
2018-10-09T13:38:03.237Z,32.20
2018-10-09T13:40:38.561Z,31.40
2018-10-09T13:43:13.656Z,29.60
2018-10-09T13:45:48.850Z,28.90
2018-10-09T13:48:24.102Z,30.90
2018-10-09T13:50:59.388Z,31.90
2018-10-09T13:53:34.895Z,32.10
2018-10-09T13:56:10.110Z,32.40
2018-10-09T13:58:45.113Z,32.40
2018-10-09T14:01:20.080Z,32.80
2018-10-09T14:03:55.329Z,32.70
2018-10-09T14:06:31.071Z,31.10
2018-10-09T14:09:09.042Z,29.00
2018-10-09T14:11:45.156Z,29.30
2018-10-09T14:14:20.215Z,30.20
2018-10-09T14:16:55.213Z,29.50
2018-10-09T14:19:30.409Z,30.20
2018-10-09T14:22:05.625Z,29.80
2018-10-09T14:24:40.890Z,28.40
2018-10-09T14:27:15.986Z,28.40
2018-10-09T14:29:51.118Z,28.50
2018-10-09T14:32:25.994Z,28.70
2018-10-09T14:35:01.257Z,29.10
2018-10-09T14:37:36.370Z,30.90
2018-10-09T14:40:11.458Z,30.60
2018-10-09T14:42:46.571Z,28.50
2018-10-09T14:45:21.785Z,28.20
2018-10-09T14:47:56.791Z,27.60
2018-10-09T14:50:31.793Z,28.40
2018-10-09T14:53:07.491Z,27.70
2018-10-09T14:55:43.002Z,28.80
2018-10-09T14:58:18.189Z,29.50
2018-10-09T15:00:54.194Z,29.20
2018-10-09T15:03:30.714Z,28.70
2018-10-09T15:06:05.842Z,27.90
2018-10-09T15:08:40.905Z,27.30
2018-10-09T15:11:17.004Z,27.00
2018-10-09T15:13:52.566Z,27.00
2018-10-09T15:16:27.930Z,26.10
2018-10-09T15:19:02.903Z,26.20
2018-10-09T15:21:38.626Z,25.70
2018-10-09T15:24:14.002Z,25.40
2018-10-09T15:26:49.389Z,25.20
2018-10-09T15:29:25.241Z,25.50
2018-10-09T15:32:01.258Z,25.20
2018-10-09T15:34:37.514Z,24.10
2018-10-09T15:37:12.959Z,23.90
2018-10-09T15:39:48.215Z,23.50
2018-10-09T15:42:23.924Z,23.30
2018-10-09T15:44:59.362Z,23.60
2018-10-09T15:47:35.435Z,23.60
2018-10-09T15:50:10.882Z,23.70
2018-10-09T15:52:46.896Z,23.50
2018-10-09T15:55:22.375Z,23.30
2018-10-09T15:57:58.045Z,23.20
2018-10-09T16:00:36.362Z,23.00
2018-10-09T16:03:11.765Z,23.00
2018-10-09T16:05:47.241Z,22.80
2018-10-09T16:08:22.570Z,22.50
2018-10-09T16:10:58.181Z,22.40
2018-10-09T16:13:34.166Z,22.30
2018-10-09T16:16:09.670Z,22.20
2018-10-09T16:18:45.610Z,22.00
2018-10-09T16:21:21.574Z,21.80
2018-10-09T16:23:56.954Z,21.70
2018-10-09T16:26:36.402Z,21.60
2018-10-09T16:29:11.625Z,21.50
2018-10-09T16:31:49.513Z,21.40
2018-10-09T16:34:25.472Z,21.20
2018-10-09T16:37:01.122Z,21.10
2018-10-09T16:39:37.176Z,21.00
2018-10-09T16:42:12.711Z,20.90
2018-10-09T16:44:48.056Z,20.60
2018-10-09T16:47:23.540Z,20.40
2018-10-09T16:49:58.972Z,20.30
2018-10-09T16:52:34.412Z,20.20
2018-10-09T16:55:10.010Z,20.00
2018-10-09T16:57:45.986Z,19.70
2018-10-09T17:00:22.064Z,19.50
2018-10-09T17:02:57.670Z,19.40
2018-10-09T17:05:33.116Z,19.30
2018-10-09T17:08:08.859Z,19.10
2018-10-09T17:10:44.493Z,18.80
2018-10-09T17:13:19.898Z,18.70
2018-10-09T17:15:55.401Z,18.70
2018-10-09T17:18:31.389Z,18.60
2018-10-09T17:21:06.878Z,18.50
2018-10-09T17:23:42.254Z,18.40
2018-10-09T17:26:17.730Z,18.40
2018-10-09T17:28:53.225Z,18.10
2018-10-09T17:31:28.589Z,18.20
2018-10-09T17:34:04.491Z,18.00
2018-10-09T17:36:40.289Z,17.90
2018-10-09T17:39:15.216Z,17.90
2018-10-09T17:41:50.930Z,17.80
2018-10-09T17:44:26.253Z,17.80
2018-10-09T17:47:10.083Z,17.70
2018-10-09T17:49:45.766Z,17.70
2018-10-09T17:52:21.265Z,17.60
2018-10-09T17:54:56.711Z,17.50
2018-10-09T17:57:32.190Z,17.40
2018-10-09T18:00:08.236Z,17.50
2018-10-09T18:02:43.051Z,17.10
2018-10-09T18:05:18.392Z,17.20
2018-10-09T18:07:53.881Z,16.90
2018-10-09T18:10:28.909Z,17.00
2018-10-09T18:13:04.443Z,16.80
2018-10-09T18:15:39.248Z,16.90
2018-10-09T18:18:14.153Z,16.80
2018-10-09T18:20:49.017Z,16.70
2018-10-09T18:23:23.767Z,16.80
2018-10-09T18:25:59.116Z,16.70
2018-10-09T18:28:33.928Z,16.50
2018-10-09T18:31:09.269Z,16.40
2018-10-09T18:33:44.125Z,16.50
2018-10-09T18:36:19.674Z,16.40
2018-10-09T18:38:54.609Z,16.60
2018-10-09T18:41:29.493Z,16.60
2018-10-09T18:44:04.547Z,16.60
2018-10-09T18:46:39.523Z,16.50
2018-10-09T18:49:15.047Z,16.40
2018-10-09T18:51:49.941Z,16.20
2018-10-09T18:54:25.441Z,16.10
2018-10-09T18:57:00.473Z,16.00
2018-10-09T18:59:35.785Z,16.40
2018-10-09T19:02:11.445Z,16.40
2018-10-09T19:04:47.384Z,16.60
2018-10-09T19:07:22.711Z,16.60
2018-10-09T19:09:57.743Z,16.60
2018-10-09T19:12:33.556Z,16.80
2018-10-09T19:15:09.526Z,16.70
2018-10-09T19:17:44.855Z,16.70
2018-10-09T19:20:20.141Z,16.40
2018-10-09T19:22:55.182Z,16.20
2018-10-09T19:25:30.333Z,16.20
2018-10-09T19:28:05.741Z,16.00
2018-10-09T19:30:40.962Z,16.00
2018-10-09T19:33:16.241Z,16.20
2018-10-09T19:35:51.437Z,16.20
2018-10-09T19:38:26.330Z,15.90
2018-10-09T19:41:01.562Z,15.90
2018-10-09T19:43:36.668Z,15.80
2018-10-09T19:46:11.720Z,15.70
2018-10-09T19:48:46.741Z,15.50
2018-10-09T19:51:22.174Z,15.50
2018-10-09T19:53:57.718Z,15.50
2018-10-09T19:56:32.865Z,15.40
2018-10-09T19:59:08.019Z,15.30
2018-10-09T20:01:43.315Z,15.30
2018-10-09T20:04:19.099Z,15.40
2018-10-09T20:06:54.413Z,15.50
2018-10-09T20:09:29.569Z,15.50
2018-10-09T20:12:04.892Z,15.40
2018-10-09T20:14:40.414Z,15.40
2018-10-09T20:17:15.518Z,15.30
2018-10-09T20:19:50.424Z,15.30
2018-10-09T20:22:26.179Z,15.20
2018-10-09T20:25:01.359Z,15.30
2018-10-09T20:27:36.155Z,15.10
2018-10-09T20:30:11.043Z,14.60
2018-10-09T20:32:46.001Z,14.10
2018-10-09T20:35:20.894Z,14.20
2018-10-09T20:37:55.744Z,14.10
2018-10-09T20:40:30.682Z,14.00
2018-10-09T20:43:05.673Z,14.20
2018-10-09T20:45:40.479Z,14.10
2018-10-09T20:48:15.199Z,14.00
2018-10-09T20:50:50.702Z,14.00
2018-10-09T20:53:25.562Z,13.90
2018-10-09T20:56:00.360Z,13.90
2018-10-09T20:58:35.209Z,13.80
2018-10-09T21:01:10.079Z,13.80
2018-10-09T21:03:44.856Z,13.80
2018-10-09T21:06:19.833Z,13.80
2018-10-09T21:08:55.553Z,13.90
2018-10-09T21:11:31.186Z,13.80
2018-10-09T21:14:06.026Z,13.80
2018-10-09T21:16:41.612Z,13.80
2018-10-09T21:19:18.234Z,13.80
2018-10-09T21:21:53.237Z,13.70
2018-10-09T21:24:28.031Z,13.50
2018-10-09T21:27:02.895Z,13.50
2018-10-09T21:29:38.487Z,13.40
2018-10-09T21:32:13.354Z,13.40
2018-10-09T21:34:48.181Z,13.30
2018-10-09T21:37:23.873Z,13.40
2018-10-09T21:39:58.815Z,13.40
2018-10-09T21:42:33.683Z,13.30
2018-10-09T21:45:09.063Z,13.10
2018-10-09T21:47:49.809Z,13.00
2018-10-09T21:50:25.030Z,12.80
2018-10-09T21:53:00.302Z,12.80
2018-10-09T21:55:35.209Z,12.70
2018-10-09T21:58:09.966Z,12.50
2018-10-09T22:00:50.266Z,12.40
2018-10-09T22:03:25.118Z,12.20
2018-10-09T22:06:00.111Z,12.00
2018-10-09T22:08:35.798Z,12.00
2018-10-09T22:11:10.597Z,12.10
2018-10-09T22:13:45.519Z,12.00
2018-10-09T22:16:20.853Z,11.90
2018-10-09T22:18:55.796Z,11.90
2018-10-09T22:21:30.682Z,11.80
2018-10-09T22:24:05.681Z,11.70
2018-10-09T22:26:40.497Z,11.70
2018-10-09T22:29:15.225Z,11.60
2018-10-09T22:31:49.989Z,11.50
2018-10-09T22:34:25.638Z,11.60
2018-10-09T22:37:00.450Z,11.60
2018-10-09T22:39:35.255Z,11.50
2018-10-09T22:42:10.039Z,11.50
2018-10-09T22:44:44.929Z,11.40
2018-10-09T22:47:19.780Z,11.10
2018-10-09T22:49:54.499Z,11.20
2018-10-09T22:52:29.493Z,11.10
2018-10-09T22:55:04.297Z,11.20
2018-10-09T22:57:39.818Z,11.10
2018-10-09T23:00:14.594Z,11.10
2018-10-09T23:02:49.469Z,11.00
2018-10-09T23:05:24.424Z,11.00
2018-10-09T23:07:59.252Z,11.00
2018-10-09T23:10:34.293Z,11.00
2018-10-09T23:13:09.096Z,11.00
2018-10-09T23:15:43.969Z,10.90
2018-10-09T23:18:18.892Z,10.90
2018-10-09T23:20:53.814Z,11.00
2018-10-09T23:23:28.792Z,10.90
2018-10-09T23:26:03.670Z,11.00
2018-10-09T23:28:38.337Z,11.00
2018-10-09T23:31:14.054Z,11.00
2018-10-09T23:33:48.685Z,11.10
2018-10-09T23:36:23.416Z,10.90
2018-10-09T23:38:58.845Z,11.00
2018-10-09T23:41:33.659Z,11.00
2018-10-09T23:44:08.399Z,11.10
2018-10-09T23:46:43.478Z,11.00
2018-10-09T23:49:18.282Z,10.90
2018-10-09T23:51:53.057Z,11.00
2018-10-09T23:54:27.752Z,10.80
2018-10-09T23:57:02.549Z,10.90
2018-10-09T23:59:37.688Z,11.00
